createdAt,value
2019-04-14T00:02:29.390Z,102186.56
2019-04-14T00:05:01.856Z,102183.00
2019-04-14T00:07:31.901Z,102159.83
2019-04-14T00:10:00.994Z,102172.43
2019-04-14T00:12:29.972Z,102183.97
2019-04-14T00:14:59.932Z,102180.91
2019-04-14T00:17:30.613Z,102174.62
2019-04-14T00:20:00.980Z,102181.28
2019-04-14T00:22:30.995Z,102185.41
2019-04-14T00:25:02.379Z,102183.61
2019-04-14T00:27:32.394Z,102181.44
2019-04-14T00:30:01.559Z,102183.69
2019-04-14T00:32:33.313Z,102179.44
2019-04-14T00:35:12.376Z,102175.50
2019-04-14T00:38:01.204Z,102178.28
2019-04-14T00:40:39.147Z,102172.50
2019-04-14T00:43:15.896Z,102179.24
2019-04-14T00:45:53.073Z,102172.58
2019-04-14T00:48:24.177Z,102162.02
2019-04-14T00:50:54.011Z,102171.47
2019-04-14T00:53:23.273Z,102164.11
2019-04-14T00:55:53.341Z,102165.42
2019-04-14T00:58:23.527Z,102153.91
2019-04-14T01:00:53.840Z,102158.20
2019-04-14T01:03:24.441Z,102153.91
2019-04-14T01:05:54.655Z,102150.02
2019-04-14T01:08:24.835Z,102149.38
2019-04-14T01:10:54.203Z,102157.62
2019-04-14T01:13:24.615Z,102149.38
2019-04-14T01:16:00.597Z,102147.72
2019-04-14T01:18:25.525Z,102150.69
2019-04-14T01:20:55.661Z,102152.37
2019-04-14T01:23:26.095Z,102157.73
2019-04-14T01:25:56.444Z,102147.36
2019-04-14T01:28:26.574Z,102150.14
2019-04-14T01:30:56.600Z,102149.77
2019-04-14T01:33:25.702Z,102154.59
2019-04-14T01:35:55.282Z,102151.52
2019-04-14T01:38:25.490Z,102152.77
2019-04-14T01:40:55.294Z,102153.06
2019-04-14T01:43:25.567Z,102151.84
2019-04-14T01:46:05.141Z,102153.70
2019-04-14T01:48:25.824Z,102159.37
2019-04-14T01:51:07.058Z,102156.73
2019-04-14T01:53:46.774Z,102156.20
2019-04-14T01:56:22.978Z,102157.04
2019-04-14T01:58:55.696Z,102154.94
2019-04-14T02:01:30.401Z,102152.93
2019-04-14T02:04:00.663Z,102154.17
2019-04-14T02:06:29.720Z,102155.43
2019-04-14T02:08:58.996Z,102159.32
2019-04-14T02:11:29.173Z,102158.78
2019-04-14T02:13:59.362Z,102151.74
2019-04-14T02:16:39.184Z,102162.11
2019-04-14T02:19:00.349Z,102166.77
2019-04-14T02:21:30.309Z,102167.64
2019-04-14T02:24:00.478Z,102162.21
2019-04-14T02:26:30.831Z,102185.17
2019-04-14T02:29:01.329Z,102179.50
2019-04-14T02:31:54.994Z,102184.01
2019-04-14T02:39:39.084Z,102193.38
2019-04-14T02:42:17.370Z,102187.33
2019-04-14T02:44:38.262Z,102190.67
2019-04-14T02:49:36.806Z,102190.13
2019-04-14T02:52:04.439Z,102191.36
2019-04-14T02:54:45.896Z,102194.47
2019-04-14T02:57:12.563Z,102194.06
2019-04-14T03:04:45.364Z,102186.37
2019-04-14T03:07:19.096Z,102186.29
2019-04-14T03:09:42.248Z,102182.19
2019-04-14T03:12:16.389Z,102185.83
2019-04-14T03:14:49.853Z,102185.29
2019-04-14T03:17:39.140Z,102187.47
2019-04-14T03:20:48.247Z,102187.92
2019-04-14T03:25:49.258Z,102187.92
2019-04-14T03:28:37.916Z,102183.88
2019-04-14T03:38:50.865Z,102178.31
2019-04-14T03:41:27.387Z,102180.47
2019-04-14T03:43:54.645Z,102173.66
2019-04-14T03:46:27.437Z,102175.48
2019-04-14T03:51:26.291Z,102175.16
2019-04-14T03:53:46.069Z,102172.52
2019-04-14T03:56:29.837Z,102169.66
2019-04-14T03:58:59.822Z,102178.73
2019-04-14T04:01:30.128Z,102188.47
2019-04-14T04:03:59.271Z,102182.05
2019-04-14T04:06:29.217Z,102187.69
2019-04-14T04:08:59.568Z,102176.37
2019-04-14T04:11:30.055Z,102177.11
2019-04-14T04:14:00.609Z,102171.75
2019-04-14T04:16:41.953Z,102178.23
2019-04-14T04:19:19.375Z,102181.20
2019-04-14T04:22:10.822Z,102179.79
2019-04-14T04:24:52.156Z,102175.60
2019-04-14T04:27:27.191Z,102169.02
2019-04-14T04:30:12.406Z,102167.77
2019-04-14T04:32:55.946Z,102174.42
2019-04-14T04:35:32.535Z,102176.82
2019-04-14T04:38:24.741Z,102182.97
2019-04-14T04:40:55.079Z,102186.14
2019-04-14T04:43:25.404Z,102191.98
2019-04-14T04:45:55.961Z,102193.54
2019-04-14T04:48:26.416Z,102194.45
2019-04-14T04:50:56.384Z,102192.52
2019-04-14T04:53:26.672Z,102190.23
2019-04-14T04:55:56.791Z,102191.92
2019-04-14T04:58:26.237Z,102190.42
2019-04-14T05:00:57.378Z,102188.94
2019-04-14T05:03:27.570Z,102200.97
2019-04-14T05:06:32.924Z,102196.23
2019-04-14T05:09:16.559Z,102195.77
2019-04-14T05:12:04.606Z,102204.08
2019-04-14T05:14:41.908Z,102201.17
2019-04-14T05:17:12.525Z,102200.94
2019-04-14T05:19:42.089Z,102194.89
2019-04-14T05:22:15.976Z,102193.57
2019-04-14T05:24:44.043Z,102194.18
2019-04-14T05:27:14.531Z,102190.50
2019-04-14T05:29:45.138Z,102192.52
2019-04-14T05:32:15.202Z,102196.41
2019-04-14T05:34:45.411Z,102196.33
2019-04-14T05:37:14.491Z,102194.73
2019-04-14T05:39:44.099Z,102191.92
2019-04-14T05:42:19.389Z,102191.20
2019-04-14T05:44:44.804Z,102193.38
2019-04-14T05:47:13.958Z,102183.39
2019-04-14T05:49:46.840Z,102186.72
2019-04-14T05:52:16.371Z,102181.97
2019-04-14T05:54:45.461Z,102191.60
2019-04-14T05:57:15.520Z,102189.73
2019-04-14T05:59:46.110Z,102196.67
2019-04-14T06:02:15.955Z,102200.22
2019-04-14T06:04:46.097Z,102210.93
2019-04-14T06:07:15.733Z,102213.42
2019-04-14T06:09:45.133Z,102221.95
2019-04-14T06:12:14.128Z,102222.80
2019-04-14T06:14:43.199Z,102229.69
2019-04-14T06:17:12.280Z,102227.05
2019-04-14T06:19:41.443Z,102230.45
2019-04-14T06:22:10.579Z,102230.37
2019-04-14T06:24:40.719Z,102231.97
2019-04-14T06:27:09.727Z,102232.27
2019-04-14T06:29:38.797Z,102225.33
2019-04-14T06:32:17.243Z,102229.39
2019-04-14T06:35:05.305Z,102220.33
2019-04-14T06:37:38.253Z,102223.66
2019-04-14T06:40:07.734Z,102217.53
2019-04-14T06:42:37.295Z,102224.82
2019-04-14T06:45:07.267Z,102223.73
2019-04-14T06:47:36.995Z,102222.11
2019-04-14T06:50:06.969Z,102227.07
2019-04-14T06:52:36.210Z,102226.70
2019-04-14T06:55:05.974Z,102233.84
2019-04-14T06:57:35.392Z,102232.89
2019-04-14T07:00:04.886Z,102227.97
2019-04-14T07:02:33.949Z,102235.17
2019-04-14T07:05:03.001Z,102236.33
2019-04-14T07:07:32.120Z,102235.59
2019-04-14T07:10:01.362Z,102234.63
2019-04-14T07:12:30.405Z,102236.93
2019-04-14T07:14:59.713Z,102238.27
2019-04-14T07:17:28.848Z,102241.27
2019-04-14T07:20:02.097Z,102241.27
2019-04-14T07:22:28.758Z,102232.39
2019-04-14T07:24:58.154Z,102241.75
2019-04-14T07:27:27.549Z,102242.63
2019-04-14T07:30:03.153Z,102235.52
2019-04-14T07:32:57.277Z,102242.63
2019-04-14T07:35:41.223Z,102244.14
2019-04-14T07:38:15.531Z,102244.70
2019-04-14T07:41:02.719Z,102241.09
2019-04-14T07:43:40.554Z,102249.80
2019-04-14T07:46:21.965Z,102246.97
2019-04-14T07:48:57.021Z,102242.63
2019-04-14T07:51:49.327Z,102242.23
2019-04-14T07:54:33.595Z,102250.56
2019-04-14T07:57:12.743Z,102247.88
2019-04-14T08:00:12.818Z,102241.81
2019-04-14T08:02:58.870Z,102246.81
2019-04-14T08:05:35.080Z,102241.05
2019-04-14T08:08:04.557Z,102254.33
2019-04-14T08:10:34.606Z,102248.58
2019-04-14T08:13:03.661Z,102249.92
2019-04-14T08:15:32.850Z,102262.13
2019-04-14T08:18:02.132Z,102253.73
2019-04-14T08:20:31.513Z,102254.77
2019-04-14T08:23:00.919Z,102245.62
2019-04-14T08:25:30.263Z,102251.20
2019-04-14T08:27:59.948Z,102262.04
2019-04-14T08:30:29.019Z,102266.78
2019-04-14T08:32:58.731Z,102260.75
2019-04-14T08:35:27.815Z,102263.65
2019-04-14T08:37:56.991Z,102267.06
2019-04-14T08:40:27.728Z,102265.18
2019-04-14T08:43:05.595Z,102265.82
2019-04-14T08:45:48.578Z,102269.28
2019-04-14T08:48:35.321Z,102275.42
2019-04-14T08:51:08.391Z,102274.37
2019-04-14T08:53:56.827Z,102269.80
2019-04-14T08:56:45.308Z,102270.50
2019-04-14T08:59:33.793Z,102267.33
2019-04-14T09:02:22.258Z,102256.42
2019-04-14T09:05:12.190Z,102261.31
2019-04-14T09:07:47.627Z,102265.90
2019-04-14T09:10:23.512Z,102275.22
2019-04-14T09:12:54.091Z,102272.56
2019-04-14T09:15:23.304Z,102275.95
2019-04-14T09:17:52.399Z,102280.98
2019-04-14T09:20:21.458Z,102278.83
2019-04-14T09:22:50.491Z,102277.98
2019-04-14T09:25:19.679Z,102279.58
2019-04-14T09:27:49.094Z,102266.67
2019-04-14T09:30:18.645Z,102278.20
2019-04-14T09:32:47.935Z,102275.61
2019-04-14T09:35:17.114Z,102278.55
2019-04-14T09:37:46.175Z,102285.02
2019-04-14T09:40:15.731Z,102277.94
2019-04-14T09:42:44.919Z,102281.69
2019-04-14T09:45:14.460Z,102279.13
2019-04-14T09:47:43.485Z,102288.27
2019-04-14T09:50:13.270Z,102291.52
2019-04-14T09:52:42.321Z,102297.03
2019-04-14T09:55:11.881Z,102302.88
2019-04-14T09:57:41.273Z,102301.78
2019-04-14T10:00:14.366Z,102300.95
2019-04-14T10:02:43.438Z,102298.50
2019-04-14T10:05:12.586Z,102294.09
2019-04-14T10:07:45.390Z,102298.92
2019-04-14T10:10:14.778Z,102294.49
2019-04-14T10:12:44.417Z,102298.98
2019-04-14T10:15:13.570Z,102295.80
2019-04-14T10:17:42.614Z,102283.41
2019-04-14T10:20:11.994Z,102287.61
2019-04-14T10:22:41.044Z,102284.70
2019-04-14T10:25:10.134Z,102281.70
2019-04-14T10:27:39.202Z,102274.84
2019-04-14T10:30:08.867Z,102276.23
2019-04-14T10:32:38.719Z,102272.89
2019-04-14T10:35:07.787Z,102279.62
2019-04-14T10:37:37.140Z,102260.35
2019-04-14T10:40:06.451Z,102270.69
2019-04-14T10:42:35.950Z,102268.97
2019-04-14T10:45:05.285Z,102254.39
2019-04-14T10:47:34.760Z,102259.66
2019-04-14T10:50:04.284Z,102259.99
2019-04-14T10:52:33.708Z,102258.61
2019-04-14T10:55:02.867Z,102254.95
2019-04-14T10:57:32.055Z,102252.99
2019-04-14T11:00:01.127Z,102252.67
2019-04-14T11:02:30.199Z,102251.88
2019-04-14T11:04:59.274Z,102262.95
2019-04-14T11:07:30.010Z,102258.98
2019-04-14T11:09:59.140Z,102258.98
2019-04-14T11:12:28.952Z,102244.22
2019-04-14T11:14:58.666Z,102244.22
2019-04-14T11:17:28.042Z,102257.04
2019-04-14T11:19:57.777Z,102254.00
2019-04-14T11:22:26.938Z,102249.80
2019-04-14T11:24:56.163Z,102256.50
2019-04-14T11:27:25.721Z,102255.36
2019-04-14T11:29:55.552Z,102255.80
2019-04-14T11:32:50.848Z,102253.22
2019-04-14T11:35:24.318Z,102249.64
2019-04-14T11:38:11.131Z,102250.89
2019-04-14T11:40:46.571Z,102253.72
2019-04-14T11:43:16.067Z,102243.55
2019-04-14T11:45:47.120Z,102245.00
2019-04-14T11:48:16.192Z,102254.63
2019-04-14T11:50:45.259Z,102254.95
2019-04-14T11:53:14.365Z,102251.26
2019-04-14T11:55:43.412Z,102248.64
2019-04-14T11:58:12.604Z,102247.35
2019-04-14T12:00:59.143Z,102248.77
2019-04-14T12:03:54.207Z,102256.42
2019-04-14T12:06:42.862Z,102248.95
2019-04-14T12:09:18.506Z,102260.53
2019-04-14T12:11:47.558Z,102253.78
2019-04-14T12:14:17.018Z,102253.47
2019-04-14T12:16:46.202Z,102258.55
2019-04-14T12:19:15.597Z,102250.94
2019-04-14T12:21:44.685Z,102256.36
2019-04-14T12:24:13.796Z,102250.84
2019-04-14T12:26:42.860Z,102257.82
2019-04-14T12:29:12.030Z,102263.67
2019-04-14T12:31:42.000Z,102259.47
2019-04-14T12:34:11.178Z,102255.00
2019-04-14T12:36:40.658Z,102258.55
2019-04-14T12:39:17.858Z,102254.04
2019-04-14T12:41:51.167Z,102256.59
2019-04-14T12:44:38.786Z,102259.52
2019-04-14T12:47:27.187Z,102255.79
2019-04-14T12:49:57.162Z,102258.42
2019-04-14T12:52:27.660Z,102256.13
2019-04-14T12:54:57.379Z,102255.48
2019-04-14T12:57:39.979Z,102205.72
2019-04-14T13:00:17.677Z,102245.39
2019-04-14T13:02:48.856Z,102254.75
2019-04-14T13:05:17.902Z,102254.11
2019-04-14T13:07:47.225Z,102246.73
2019-04-14T13:10:16.745Z,102250.25
2019-04-14T13:12:46.095Z,102254.20
2019-04-14T13:15:15.447Z,102255.70
2019-04-14T13:17:44.591Z,102254.45
2019-04-14T13:20:13.958Z,102263.66
2019-04-14T13:22:43.032Z,102261.80
2019-04-14T13:25:12.218Z,102251.45
2019-04-14T13:27:41.309Z,102252.12
2019-04-14T13:30:12.884Z,102251.14
2019-04-14T13:32:42.374Z,102247.24
2019-04-14T13:35:12.046Z,102245.30
2019-04-14T13:37:41.154Z,102243.22
2019-04-14T13:40:10.374Z,102241.41
2019-04-14T13:42:40.004Z,102231.16
2019-04-14T13:45:09.448Z,102233.73
2019-04-14T13:47:39.051Z,102237.85
2019-04-14T13:50:08.492Z,102233.40
2019-04-14T13:52:46.610Z,102231.00
2019-04-14T13:55:08.916Z,102232.24
2019-04-14T13:57:38.086Z,102227.83
2019-04-14T14:00:09.191Z,102220.61
2019-04-14T14:02:40.538Z,102224.56
2019-04-14T14:05:10.050Z,102217.16
2019-04-14T14:07:39.490Z,102222.05
2019-04-14T14:10:10.255Z,102208.38
2019-04-14T14:12:58.717Z,102209.77
2019-04-14T14:15:51.734Z,102207.40
2019-04-14T14:18:33.028Z,102202.86
2019-04-14T14:21:27.125Z,102196.05
2019-04-14T14:24:27.984Z,102189.20
2019-04-14T14:27:02.190Z,102188.70
2019-04-14T14:29:31.340Z,102200.34
2019-04-14T14:32:02.281Z,102203.60
2019-04-14T14:34:33.599Z,102199.06
2019-04-14T14:37:03.802Z,102205.62
2019-04-14T14:39:32.959Z,102205.48
2019-04-14T14:42:02.020Z,102206.06
2019-04-14T14:44:39.134Z,102208.17
2019-04-14T14:47:20.941Z,102219.33
2019-04-14T14:50:09.021Z,102214.86
2019-04-14T14:52:39.795Z,102215.11
2019-04-14T14:55:08.949Z,102213.35
2019-04-14T14:57:38.017Z,102213.79
2019-04-14T15:00:13.220Z,102215.23
2019-04-14T15:02:42.829Z,102207.55
2019-04-14T15:05:13.029Z,102198.78
2019-04-14T15:07:42.195Z,102198.72
2019-04-14T15:10:11.411Z,102197.66
2019-04-14T15:12:40.468Z,102197.82
2019-04-14T15:15:15.082Z,102201.57
2019-04-14T15:17:44.188Z,102207.58
2019-04-14T15:20:13.817Z,102212.38
2019-04-14T15:22:42.894Z,102207.39
2019-04-14T15:25:11.984Z,102215.31
2019-04-14T15:27:40.998Z,102220.91
2019-04-14T15:30:21.443Z,102218.66
2019-04-14T15:32:54.670Z,102188.03
2019-04-14T15:35:33.106Z,102226.11
2019-04-14T15:38:04.438Z,102232.70
2019-04-14T15:40:33.456Z,102222.87
2019-04-14T15:43:02.778Z,102230.43
2019-04-14T15:45:31.821Z,102232.07
2019-04-14T15:48:01.095Z,102232.07
2019-04-14T15:50:30.169Z,102239.99
2019-04-14T15:52:59.272Z,102249.44
2019-04-14T15:55:29.749Z,102235.47
2019-04-14T15:58:14.288Z,102235.47
2019-04-14T16:01:09.992Z,102252.70
2019-04-14T16:03:56.177Z,102257.59
2019-04-14T16:06:54.103Z,102251.44
2019-04-14T16:09:29.813Z,102262.89
2019-04-14T16:12:08.347Z,102262.01
2019-04-14T16:14:59.160Z,102269.18
2019-04-14T16:17:50.719Z,102258.16
2019-04-14T16:20:28.947Z,102257.48
2019-04-14T16:22:58.629Z,102256.02
2019-04-14T16:25:50.836Z,102254.81
2019-04-14T16:28:38.924Z,102249.65
2019-04-14T16:31:27.079Z,102247.83
2019-04-14T16:36:26.398Z,102246.48
2019-04-14T16:38:55.505Z,102258.41
2019-04-14T16:41:25.018Z,102254.95
2019-04-14T16:43:54.055Z,102269.34
2019-04-14T16:46:23.259Z,102281.66
2019-04-14T16:48:52.488Z,102285.84
2019-04-14T16:51:29.141Z,102290.63
2019-04-14T16:54:03.154Z,102288.81
2019-04-14T16:56:53.097Z,102287.77
2019-04-14T16:59:23.951Z,102281.57
2019-04-14T17:01:53.012Z,102282.33
2019-04-14T17:04:22.610Z,102277.13
2019-04-14T17:06:54.722Z,102272.61
2019-04-14T17:09:23.944Z,102275.70
2019-04-14T17:11:53.170Z,102286.30
2019-04-14T17:14:44.784Z,102281.86
2019-04-14T17:17:31.497Z,102281.33
2019-04-14T17:20:27.180Z,102271.69
2019-04-14T17:23:27.151Z,102276.76
2019-04-14T17:26:08.758Z,102276.91
2019-04-14T17:28:54.111Z,102273.49
2019-04-14T17:31:34.164Z,102272.19
2019-04-14T17:34:09.223Z,102277.06
2019-04-14T17:37:03.128Z,102269.66
2019-04-14T17:39:43.845Z,102271.63
2019-04-14T17:42:20.996Z,102267.15
2019-04-14T17:45:13.266Z,102252.09
2019-04-14T17:48:04.306Z,102238.61
2019-04-14T17:50:40.810Z,102232.37
2019-04-14T17:53:22.739Z,102237.25
2019-04-14T17:56:19.899Z,102229.70
2019-04-14T17:58:59.912Z,102216.55
2019-04-14T18:01:36.316Z,102223.85
2019-04-14T18:04:10.466Z,102213.74
2019-04-14T18:06:46.951Z,102218.91
2019-04-14T18:09:25.127Z,102212.52
2019-04-14T18:12:06.894Z,102209.11
2019-04-14T18:14:47.368Z,102197.27
2019-04-14T18:17:30.374Z,102195.61
2019-04-14T18:20:03.575Z,102195.23
2019-04-14T18:22:32.598Z,102185.78
2019-04-14T18:25:01.758Z,102187.94
2019-04-14T18:27:34.046Z,102193.98
2019-04-14T18:30:17.877Z,102195.16
2019-04-14T18:33:08.989Z,102199.30
2019-04-14T18:35:55.396Z,102192.55
2019-04-14T18:38:49.584Z,102201.05
2019-04-14T18:41:40.614Z,102214.41
2019-04-14T18:44:31.437Z,102214.47
2019-04-14T18:47:07.473Z,102208.26
2019-04-14T18:49:49.461Z,102220.25
2019-04-14T18:52:43.739Z,102222.20
2019-04-14T18:55:29.643Z,102223.73
2019-04-14T18:58:35.585Z,102234.20
2019-04-14T19:01:17.071Z,102230.92
2019-04-14T19:03:46.482Z,102232.22
2019-04-14T19:06:15.773Z,102241.73
2019-04-14T19:08:45.399Z,102239.97
2019-04-14T19:11:34.059Z,102237.47
2019-04-14T19:14:04.930Z,102240.94
2019-04-14T19:16:40.634Z,102245.40
2019-04-14T19:19:10.064Z,102246.28
2019-04-14T19:21:39.313Z,102254.48
2019-04-14T19:24:08.429Z,102256.68
2019-04-14T19:26:37.625Z,102260.06
2019-04-14T19:29:07.098Z,102257.95
2019-04-14T19:31:36.092Z,102265.73
2019-04-14T19:34:05.257Z,102263.31
2019-04-14T19:36:36.806Z,102264.70
2019-04-14T19:39:10.887Z,102274.28
2019-04-14T19:41:42.063Z,102277.00
2019-04-14T19:44:11.671Z,102280.70
2019-04-14T19:46:41.454Z,102290.75
2019-04-14T19:49:12.694Z,102286.30
2019-04-14T19:51:42.082Z,102288.05
2019-04-14T19:54:11.185Z,102292.02
2019-04-14T19:56:40.215Z,102293.94
2019-04-14T19:59:09.533Z,102293.84
2019-04-14T20:01:39.058Z,102293.45
2019-04-14T20:04:08.912Z,102296.95
2019-04-14T20:06:38.252Z,102296.95
2019-04-14T20:09:07.775Z,102297.78
2019-04-14T20:11:37.516Z,102294.38
2019-04-14T20:14:06.524Z,102292.72
2019-04-14T20:16:51.411Z,102289.71
2019-04-14T20:19:39.465Z,102291.14
2019-04-14T20:22:33.872Z,102294.84
2019-04-14T20:25:09.065Z,102274.98
2019-04-14T20:27:52.205Z,102296.98
2019-04-14T20:30:32.011Z,102307.10
2019-04-14T20:33:01.040Z,102306.68
2019-04-14T20:35:30.451Z,102301.36
2019-04-14T20:37:59.682Z,102299.45
2019-04-14T20:40:30.239Z,102312.38
2019-04-14T20:42:59.585Z,102308.63
2019-04-14T20:45:28.636Z,102311.48
2019-04-14T20:47:57.767Z,102309.34
2019-04-14T20:50:26.811Z,102309.53
2019-04-14T20:52:55.852Z,102312.39
2019-04-14T20:55:24.978Z,102322.84
2019-04-14T20:57:54.278Z,102319.06
2019-04-14T21:00:23.804Z,102327.64
2019-04-14T21:03:09.170Z,102330.47
2019-04-14T21:05:55.993Z,102329.91
2019-04-14T21:08:42.716Z,102333.52
2019-04-14T21:11:36.534Z,102335.59
2019-04-14T21:14:24.603Z,102330.87
2019-04-14T21:17:08.565Z,102330.87
2019-04-14T21:19:56.802Z,102330.22
2019-04-14T21:22:43.195Z,102329.17
2019-04-14T21:25:43.494Z,102328.03
2019-04-14T21:28:29.992Z,102330.50
2019-04-14T21:31:13.566Z,102341.11
2019-04-14T21:33:51.207Z,102338.10
2019-04-14T21:36:28.592Z,102343.19
2019-04-14T21:39:15.847Z,102338.63
2019-04-14T21:41:46.683Z,102329.56
2019-04-14T21:44:16.533Z,102331.61
2019-04-14T21:46:46.278Z,102323.35
2019-04-14T21:49:15.766Z,102327.12
2019-04-14T21:52:12.951Z,102331.77
2019-04-14T21:54:43.943Z,102335.75
2019-04-14T21:57:38.442Z,102341.63
2019-04-14T22:00:43.740Z,102339.56
2019-04-14T22:03:39.575Z,102340.14
2019-04-14T22:06:15.076Z,102348.63
2019-04-14T22:08:47.882Z,102345.03
2019-04-14T22:11:19.899Z,102351.09
2019-04-14T22:13:51.084Z,102348.16
2019-04-14T22:16:20.049Z,102349.38
2019-04-14T22:18:49.797Z,102350.70
2019-04-14T22:21:18.918Z,102350.87
2019-04-14T22:24:00.310Z,102355.02
2019-04-14T22:26:26.080Z,102362.97
2019-04-14T22:28:49.499Z,102357.81
2019-04-14T22:31:18.555Z,102364.24
2019-04-14T22:33:47.571Z,102361.59
2019-04-14T22:36:16.621Z,102369.70
2019-04-14T22:38:46.115Z,102370.19
2019-04-14T22:41:15.155Z,102376.98
2019-04-14T22:43:44.548Z,102363.81
2019-04-14T22:46:13.573Z,102374.56
2019-04-14T22:48:42.654Z,102370.44
2019-04-14T22:51:11.836Z,102373.45
2019-04-14T22:53:40.884Z,102374.38
2019-04-14T22:56:10.299Z,102378.08
2019-04-14T22:58:39.384Z,102373.03
2019-04-14T23:01:18.270Z,102372.18
2019-04-14T23:04:04.763Z,102373.22
2019-04-14T23:06:58.123Z,102373.42
2019-04-14T23:09:40.745Z,102368.13
2019-04-14T23:12:21.412Z,102372.37
2019-04-14T23:14:55.487Z,102370.69
2019-04-14T23:17:32.281Z,102370.30
2019-04-14T23:20:22.997Z,102368.30
2019-04-14T23:23:18.956Z,102367.33
2019-04-14T23:25:48.429Z,102365.69
2019-04-14T23:28:17.459Z,102365.02
2019-04-14T23:30:47.477Z,102363.16
2019-04-14T23:33:16.493Z,102369.14
2019-04-14T23:35:45.979Z,102357.70
2019-04-14T23:38:15.138Z,102356.04
2019-04-14T23:40:44.355Z,102355.78
2019-04-14T23:43:13.738Z,102353.56
2019-04-14T23:45:42.752Z,102343.89
2019-04-14T23:48:11.753Z,102349.02
2019-04-14T23:50:40.761Z,102347.50
2019-04-14T23:53:09.762Z,102343.50
2019-04-14T23:55:38.815Z,102344.23
2019-04-14T23:58:08.123Z,102344.92
